createdAt,value
2022-12-25T00:01:14.846Z,1.36
2022-12-25T00:03:49.857Z,1.45
2022-12-25T00:06:19.681Z,1.50
2022-12-25T00:08:48.148Z,1.54
2022-12-25T00:11:20.013Z,1.59
2022-12-25T00:13:49.304Z,1.67
2022-12-25T00:16:24.321Z,1.75
2022-12-25T00:18:54.460Z,1.80
2022-12-25T00:21:23.044Z,1.85
2022-12-25T00:23:55.221Z,1.90
2022-12-25T00:26:25.452Z,1.94
2022-12-25T00:28:57.871Z,1.99
2022-12-25T00:31:27.571Z,2.05
2022-12-25T00:33:56.305Z,2.09
2022-12-25T00:36:25.100Z,2.14
2022-12-25T00:38:53.684Z,2.14
2022-12-25T00:41:42.646Z,2.13
2022-12-25T00:44:14.139Z,2.11
2022-12-25T00:46:43.109Z,2.12
2022-12-25T00:49:12.393Z,2.15
2022-12-25T00:51:41.280Z,2.16
2022-12-25T00:54:10.477Z,2.16
2022-12-25T00:56:40.292Z,2.14
2022-12-25T00:59:08.777Z,2.13
2022-12-25T01:01:39.748Z,2.11
2022-12-25T01:04:09.319Z,2.11
2022-12-25T01:06:39.131Z,2.12
2022-12-25T01:09:26.967Z,2.14
2022-12-25T01:11:55.552Z,2.16
2022-12-25T01:14:24.341Z,2.17
2022-12-25T01:16:53.135Z,2.17
2022-12-25T01:19:21.919Z,2.17
2022-12-25T01:21:50.605Z,2.16
2022-12-25T01:24:19.562Z,2.14
2022-12-25T01:26:48.492Z,2.10
2022-12-25T01:29:16.908Z,2.06
2022-12-25T01:31:45.529Z,2.04
2022-12-25T01:34:14.344Z,2.02
2022-12-25T01:36:42.938Z,2.03
2022-12-25T01:39:11.819Z,2.03
2022-12-25T01:41:40.611Z,2.03
2022-12-25T01:44:15.518Z,2.01
2022-12-25T01:46:44.651Z,1.99
2022-12-25T01:49:18.920Z,1.98
2022-12-25T01:51:54.301Z,1.98
2022-12-25T01:54:40.091Z,2.00
2022-12-25T01:57:14.246Z,2.03
2022-12-25T01:59:43.810Z,2.09
2022-12-25T02:02:13.059Z,2.13
2022-12-25T02:05:13.027Z,2.12
2022-12-25T02:07:43.454Z,2.10
2022-12-25T02:10:12.611Z,2.06
2022-12-25T02:12:43.751Z,1.99
2022-12-25T02:15:16.951Z,1.92
2022-12-25T02:17:51.515Z,1.78
2022-12-25T02:21:03.744Z,1.69
2022-12-25T02:24:10.196Z,1.63
2022-12-25T02:27:03.661Z,1.56
2022-12-25T02:29:51.088Z,1.49
2022-12-25T02:32:29.094Z,1.42
2022-12-25T02:35:15.676Z,1.36
2022-12-25T02:37:53.116Z,1.28
2022-12-25T02:40:32.325Z,1.15
2022-12-25T02:43:24.062Z,1.03
2022-12-25T02:46:16.448Z,0.90
2022-12-25T02:49:09.832Z,0.83
2022-12-25T02:52:03.940Z,0.79
2022-12-25T02:54:55.976Z,0.75
2022-12-25T02:57:48.521Z,0.71
2022-12-25T03:00:36.052Z,0.68
2022-12-25T03:03:27.281Z,0.69
2022-12-25T03:06:17.973Z,0.68
2022-12-25T03:08:53.532Z,0.65
2022-12-25T03:11:34.113Z,0.59
2022-12-25T03:14:24.479Z,0.53
2022-12-25T03:16:59.421Z,0.50
2022-12-25T03:19:53.030Z,0.52
2022-12-25T03:22:50.635Z,0.51
2022-12-25T03:25:38.908Z,0.52
2022-12-25T03:28:07.678Z,0.54
2022-12-25T03:31:02.922Z,0.53
2022-12-25T03:34:18.367Z,0.53
2022-12-25T03:37:01.927Z,0.54
2022-12-25T03:39:55.183Z,0.52
2022-12-25T03:43:02.464Z,0.51
2022-12-25T03:46:00.503Z,0.46
2022-12-25T03:48:51.951Z,0.47
2022-12-25T03:51:46.343Z,0.51
2022-12-25T03:54:40.183Z,0.55
2022-12-25T03:57:28.792Z,0.60
2022-12-25T04:00:16.813Z,0.64
2022-12-25T04:03:04.188Z,0.66
2022-12-25T04:05:52.279Z,0.67
2022-12-25T04:08:39.807Z,0.66
2022-12-25T04:11:27.953Z,0.69
2022-12-25T04:14:15.279Z,0.73
2022-12-25T04:17:02.967Z,0.73
2022-12-25T04:19:50.131Z,0.77
2022-12-25T04:22:37.756Z,0.80
2022-12-25T04:25:25.695Z,0.78
2022-12-25T04:28:13.849Z,0.75
2022-12-25T04:31:01.304Z,0.72
2022-12-25T04:33:48.673Z,0.67
2022-12-25T04:36:17.476Z,0.66
2022-12-25T04:38:46.177Z,0.69
2022-12-25T04:41:15.363Z,0.74
2022-12-25T04:43:44.253Z,0.78
2022-12-25T04:46:12.971Z,0.81
2022-12-25T04:48:41.834Z,0.82
2022-12-25T04:51:22.164Z,0.81
2022-12-25T04:53:52.007Z,0.81
2022-12-25T04:56:22.227Z,0.85
2022-12-25T04:58:50.819Z,0.89
2022-12-25T05:01:19.620Z,0.94
2022-12-25T05:03:48.461Z,0.97
2022-12-25T05:06:17.115Z,0.99
2022-12-25T05:08:46.176Z,0.99
2022-12-25T05:11:15.937Z,1.00
2022-12-25T05:13:44.466Z,1.01
2022-12-25T05:16:17.554Z,1.01
2022-12-25T05:18:49.417Z,1.02
2022-12-25T05:21:18.891Z,1.02
2022-12-25T05:23:51.099Z,0.98
2022-12-25T05:26:22.607Z,0.94
2022-12-25T05:28:51.432Z,0.85
2022-12-25T05:31:20.741Z,0.78
2022-12-25T05:33:51.787Z,0.71
2022-12-25T05:36:21.493Z,0.64
2022-12-25T05:38:50.675Z,0.56
2022-12-25T05:41:19.267Z,0.50
2022-12-25T05:43:48.060Z,0.44
2022-12-25T05:46:16.769Z,0.39
2022-12-25T05:48:45.732Z,0.35
2022-12-25T05:51:15.249Z,0.30
2022-12-25T05:53:44.275Z,0.26
2022-12-25T05:56:12.956Z,0.22
2022-12-25T05:58:42.128Z,0.15
2022-12-25T06:01:20.850Z,0.10
2022-12-25T06:03:49.727Z,0.05
2022-12-25T06:06:18.435Z,0.01
2022-12-25T06:08:47.158Z,-0.02
2022-12-25T06:11:16.000Z,-0.02
2022-12-25T06:13:44.791Z,-0.02
2022-12-25T06:16:13.510Z,-0.03
2022-12-25T06:18:46.697Z,-0.03
2022-12-25T06:21:16.376Z,-0.02
2022-12-25T06:23:45.645Z,0.00
2022-12-25T06:26:16.800Z,0.02
2022-12-25T06:28:46.257Z,0.06
2022-12-25T06:31:20.800Z,0.11
2022-12-25T06:33:50.368Z,0.13
2022-12-25T06:36:21.722Z,0.16
2022-12-25T06:38:50.900Z,0.24
2022-12-25T06:41:22.904Z,0.31
2022-12-25T06:43:53.803Z,0.38
2022-12-25T06:46:24.370Z,0.44
2022-12-25T06:48:53.742Z,0.49
2022-12-25T06:51:24.743Z,0.53
2022-12-25T06:53:54.557Z,0.57
2022-12-25T06:56:26.440Z,0.62
2022-12-25T06:58:58.357Z,0.68
2022-12-25T07:01:41.938Z,0.84
2022-12-25T07:04:22.111Z,1.24
2022-12-25T07:06:50.612Z,1.71
2022-12-25T07:09:19.310Z,2.18
2022-12-25T07:11:47.960Z,2.57
2022-12-25T07:14:24.473Z,2.90
2022-12-25T07:16:53.380Z,3.22
2022-12-25T07:19:22.621Z,3.50
2022-12-25T07:21:51.420Z,3.81
2022-12-25T07:24:21.327Z,4.15
2022-12-25T07:26:51.696Z,4.49
2022-12-25T07:29:20.183Z,4.78
2022-12-25T07:31:50.020Z,4.95
2022-12-25T07:34:19.071Z,5.11
2022-12-25T07:36:47.632Z,5.43
2022-12-25T07:39:16.720Z,5.71
2022-12-25T07:41:45.616Z,5.98
2022-12-25T07:44:17.066Z,6.21
2022-12-25T07:46:46.381Z,6.39
2022-12-25T07:49:14.948Z,6.47
2022-12-25T07:51:43.840Z,6.47
2022-12-25T07:54:12.630Z,6.55
2022-12-25T07:56:41.419Z,6.70
2022-12-25T07:59:10.324Z,6.80
2022-12-25T08:01:38.994Z,7.00
2022-12-25T08:04:08.450Z,7.15
2022-12-25T08:06:37.806Z,7.40
2022-12-25T08:09:13.383Z,7.72
2022-12-25T08:11:47.295Z,8.07
2022-12-25T08:14:16.359Z,8.41
2022-12-25T08:16:46.760Z,8.78
2022-12-25T08:19:15.904Z,9.22
2022-12-25T08:21:44.775Z,9.64
2022-12-25T08:24:13.462Z,9.93
2022-12-25T08:26:42.150Z,10.16
2022-12-25T08:29:11.010Z,10.36
2022-12-25T08:31:46.138Z,10.61
2022-12-25T08:34:15.964Z,10.89
2022-12-25T08:36:44.689Z,11.13
2022-12-25T08:39:13.572Z,11.34
2022-12-25T08:41:42.319Z,11.49
2022-12-25T08:44:12.182Z,11.59
2022-12-25T08:46:41.014Z,11.58
2022-12-25T08:49:09.450Z,11.63
2022-12-25T08:51:38.159Z,11.65
2022-12-25T08:54:06.785Z,11.84
2022-12-25T08:56:37.043Z,11.94
2022-12-25T08:59:05.733Z,12.09
2022-12-25T09:01:34.620Z,12.10
2022-12-25T09:04:03.581Z,12.07
2022-12-25T09:06:32.414Z,12.11
2022-12-25T09:09:00.889Z,12.09
2022-12-25T09:11:29.833Z,12.11
2022-12-25T09:13:58.580Z,12.15
2022-12-25T09:16:27.103Z,12.28
2022-12-25T09:18:58.641Z,12.40
2022-12-25T09:21:27.502Z,12.49
2022-12-25T09:23:55.977Z,12.74
2022-12-25T09:26:24.768Z,12.98
2022-12-25T09:28:53.478Z,13.16
2022-12-25T09:31:23.520Z,13.33
2022-12-25T09:33:52.360Z,13.58
2022-12-25T09:36:23.561Z,13.84
2022-12-25T09:38:53.105Z,14.07
2022-12-25T09:41:37.239Z,14.08
2022-12-25T09:44:13.836Z,14.10
2022-12-25T09:46:47.792Z,14.26
2022-12-25T09:49:27.994Z,14.27
2022-12-25T09:52:07.139Z,14.29
2022-12-25T09:54:44.430Z,14.21
2022-12-25T09:57:15.330Z,14.09
2022-12-25T09:59:45.223Z,14.04
2022-12-25T10:02:42.183Z,14.09
2022-12-25T10:05:17.596Z,14.10
2022-12-25T10:08:05.004Z,14.04
2022-12-25T10:11:01.032Z,14.21
2022-12-25T10:13:57.571Z,14.36
2022-12-25T10:16:44.589Z,14.35
2022-12-25T10:19:41.535Z,14.32
2022-12-25T10:22:16.063Z,14.22
2022-12-25T10:24:50.933Z,14.26
2022-12-25T10:27:26.750Z,14.08
2022-12-25T10:29:56.055Z,14.04
2022-12-25T10:32:24.753Z,14.17
2022-12-25T10:34:53.427Z,14.49
2022-12-25T10:37:22.323Z,14.83
2022-12-25T10:39:51.009Z,15.13
2022-12-25T10:42:31.581Z,15.26
2022-12-25T10:45:04.047Z,15.54
2022-12-25T10:47:38.572Z,15.86
2022-12-25T10:50:19.338Z,16.12
2022-12-25T10:53:01.955Z,15.99
2022-12-25T10:55:30.971Z,15.80
2022-12-25T10:58:00.052Z,15.92
2022-12-25T11:00:31.709Z,16.26
2022-12-25T11:03:00.988Z,16.47
2022-12-25T11:05:34.519Z,16.78
2022-12-25T11:08:04.219Z,16.66
2022-12-25T11:10:35.840Z,16.26
2022-12-25T11:13:17.768Z,16.14
2022-12-25T11:15:50.795Z,16.04
2022-12-25T11:18:26.300Z,16.37
2022-12-25T11:21:03.920Z,16.85
2022-12-25T11:23:33.328Z,17.34
2022-12-25T11:26:08.119Z,17.69
2022-12-25T11:28:40.625Z,18.03
2022-12-25T11:31:37.539Z,18.42
2022-12-25T11:34:10.450Z,18.75
2022-12-25T11:36:50.982Z,19.05
2022-12-25T11:39:27.609Z,18.95
2022-12-25T11:42:11.326Z,18.77
2022-12-25T11:44:52.206Z,18.57
2022-12-25T11:47:40.728Z,18.61
2022-12-25T11:50:41.814Z,18.52
2022-12-25T11:53:31.049Z,18.30
2022-12-25T11:56:09.535Z,18.32
2022-12-25T11:58:41.429Z,18.51
2022-12-25T12:01:26.845Z,19.04
2022-12-25T12:03:56.272Z,19.52
2022-12-25T12:06:48.270Z,19.86
2022-12-25T12:09:35.590Z,20.40
2022-12-25T12:12:13.020Z,20.36
2022-12-25T12:15:07.165Z,20.83
2022-12-25T12:17:36.063Z,20.85
2022-12-25T12:20:32.191Z,21.01
2022-12-25T12:23:04.169Z,21.07
2022-12-25T12:25:40.188Z,20.61
2022-12-25T12:28:20.987Z,20.68
2022-12-25T12:31:08.159Z,21.30
2022-12-25T12:34:03.318Z,22.11
2022-12-25T12:36:36.425Z,22.98
2022-12-25T12:39:06.311Z,23.45
2022-12-25T12:41:53.752Z,23.87
2022-12-25T12:44:31.257Z,23.60
2022-12-25T12:47:00.131Z,23.22
2022-12-25T12:49:32.536Z,22.74
2022-12-25T12:52:38.594Z,22.37
2022-12-25T12:55:13.360Z,21.70
2022-12-25T12:57:43.215Z,21.64
2022-12-25T13:00:19.005Z,21.88
2022-12-25T13:03:40.055Z,22.26
2022-12-25T13:06:17.631Z,22.01
2022-12-25T13:08:55.276Z,21.45
2022-12-25T13:11:26.991Z,21.03
2022-12-25T13:13:58.248Z,20.72
2022-12-25T13:16:28.358Z,20.71
2022-12-25T13:18:57.518Z,21.29
2022-12-25T13:21:29.394Z,22.03
2022-12-25T13:24:04.502Z,22.71
2022-12-25T13:26:33.508Z,23.24
2022-12-25T13:29:06.466Z,23.52
2022-12-25T13:31:42.295Z,23.86
2022-12-25T13:34:26.299Z,24.19
2022-12-25T13:36:55.164Z,24.51
2022-12-25T13:39:25.403Z,24.12
2022-12-25T13:42:07.200Z,23.22
2022-12-25T13:44:45.105Z,22.90
2022-12-25T13:47:40.622Z,23.06
2022-12-25T13:50:27.838Z,23.23
2022-12-25T13:52:58.615Z,23.34
2022-12-25T13:55:29.717Z,23.40
2022-12-25T13:58:01.669Z,23.36
2022-12-25T14:00:49.059Z,23.23
2022-12-25T14:03:22.525Z,23.03
2022-12-25T14:06:03.088Z,22.67
2022-12-25T14:08:34.802Z,22.15
2022-12-25T14:11:06.981Z,21.64
2022-12-25T14:13:41.951Z,21.17
2022-12-25T14:16:11.484Z,20.73
2022-12-25T14:18:55.285Z,20.29
2022-12-25T14:21:34.735Z,19.58
2022-12-25T14:24:03.716Z,18.81
2022-12-25T14:26:33.802Z,18.06
2022-12-25T14:29:16.878Z,17.31
2022-12-25T14:31:47.522Z,16.58
2022-12-25T14:34:23.148Z,15.99
2022-12-25T14:36:52.868Z,15.17
2022-12-25T14:39:37.825Z,14.53
2022-12-25T14:42:30.886Z,13.99
2022-12-25T14:45:24.248Z,13.49
2022-12-25T14:47:59.409Z,13.06
2022-12-25T14:50:31.220Z,12.69
2022-12-25T14:53:00.959Z,12.33
2022-12-25T14:55:30.855Z,11.97
2022-12-25T14:58:05.918Z,11.65
2022-12-25T15:00:39.490Z,11.35
2022-12-25T15:03:21.196Z,11.07
2022-12-25T15:06:04.948Z,10.76
2022-12-25T15:08:35.843Z,10.46
2022-12-25T15:11:05.358Z,10.17
2022-12-25T15:13:34.484Z,9.90
2022-12-25T15:16:12.685Z,9.70
2022-12-25T15:18:45.595Z,9.47
2022-12-25T15:21:35.157Z,9.29
2022-12-25T15:24:04.062Z,9.10
2022-12-25T15:26:33.041Z,8.96
2022-12-25T15:29:01.627Z,8.80
2022-12-25T15:31:32.763Z,8.63
2022-12-25T15:34:04.125Z,8.46
2022-12-25T15:36:34.268Z,8.34
2022-12-25T15:39:02.827Z,8.22
2022-12-25T15:41:56.103Z,8.08
2022-12-25T15:44:25.592Z,7.89
2022-12-25T15:46:54.302Z,7.73
2022-12-25T15:49:22.968Z,7.58
2022-12-25T15:51:51.755Z,7.44
2022-12-25T15:54:20.342Z,7.30
2022-12-25T15:56:55.539Z,7.18
2022-12-25T15:59:24.990Z,7.03
2022-12-25T16:01:59.093Z,6.81
2022-12-25T16:04:31.486Z,6.60
2022-12-25T16:07:00.572Z,6.46
2022-12-25T16:09:29.476Z,6.34
2022-12-25T16:11:58.044Z,6.23
2022-12-25T16:14:26.636Z,6.14
2022-12-25T16:16:55.313Z,6.06
2022-12-25T16:19:24.107Z,6.01
2022-12-25T16:21:52.689Z,5.97
2022-12-25T16:24:21.478Z,5.95
2022-12-25T16:26:50.160Z,5.93
2022-12-25T16:29:18.855Z,5.90
2022-12-25T16:31:47.465Z,5.81
2022-12-25T16:34:16.021Z,5.76
2022-12-25T16:36:45.123Z,5.70
2022-12-25T16:39:13.912Z,5.63
2022-12-25T16:41:42.385Z,5.57
2022-12-25T16:44:12.283Z,5.47
2022-12-25T16:46:41.177Z,5.37
2022-12-25T16:49:09.801Z,5.25
2022-12-25T16:51:38.391Z,5.18
2022-12-25T16:54:07.199Z,5.13
2022-12-25T16:56:36.872Z,5.08
2022-12-25T16:59:05.446Z,5.05
2022-12-25T17:01:34.336Z,5.00
2022-12-25T17:04:03.712Z,4.93
2022-12-25T17:06:32.323Z,4.85
2022-12-25T17:09:03.513Z,4.76
2022-12-25T17:11:32.576Z,4.69
2022-12-25T17:14:03.736Z,4.61
2022-12-25T17:16:35.772Z,4.55
2022-12-25T17:19:09.883Z,4.52
2022-12-25T17:21:38.725Z,4.50
2022-12-25T17:24:08.206Z,4.41
2022-12-25T17:26:37.004Z,4.31
2022-12-25T17:29:05.863Z,4.17
2022-12-25T17:31:35.194Z,4.06
2022-12-25T17:34:05.518Z,3.98
2022-12-25T17:36:34.927Z,3.90
2022-12-25T17:39:06.472Z,3.86
2022-12-25T17:41:35.030Z,3.84
2022-12-25T17:44:03.817Z,3.79
2022-12-25T17:46:32.746Z,3.76
2022-12-25T17:49:02.118Z,3.72
2022-12-25T17:51:31.696Z,3.65
2022-12-25T17:54:03.402Z,3.59
2022-12-25T17:56:32.990Z,3.52
2022-12-25T17:59:12.318Z,3.43
2022-12-25T18:01:41.310Z,3.35
2022-12-25T18:04:10.849Z,3.30
2022-12-25T18:06:39.686Z,3.26
2022-12-25T18:09:08.399Z,3.21
2022-12-25T18:11:40.453Z,3.17
2022-12-25T18:14:13.170Z,3.11
2022-12-25T18:16:44.809Z,3.01
2022-12-25T18:19:15.976Z,2.91
2022-12-25T18:21:44.640Z,2.80
2022-12-25T18:24:13.320Z,2.70
2022-12-25T18:26:42.008Z,2.59
2022-12-25T18:29:10.663Z,2.49
2022-12-25T18:31:39.330Z,2.39
2022-12-25T18:34:08.375Z,2.28
2022-12-25T18:36:37.779Z,2.21
2022-12-25T18:39:07.388Z,2.16
2022-12-25T18:41:55.943Z,2.15
2022-12-25T18:44:25.024Z,2.17
2022-12-25T18:46:54.125Z,2.20
2022-12-25T18:49:22.505Z,2.21
2022-12-25T18:51:51.400Z,2.25
2022-12-25T18:54:20.398Z,2.28
2022-12-25T18:56:53.434Z,2.33
2022-12-25T18:59:22.676Z,2.36
2022-12-25T19:01:51.266Z,2.40
2022-12-25T19:04:19.947Z,2.44
2022-12-25T19:06:50.064Z,2.47
2022-12-25T19:09:18.548Z,2.47
2022-12-25T19:11:47.131Z,2.46
2022-12-25T19:14:16.917Z,2.46
2022-12-25T19:16:45.933Z,2.47
2022-12-25T19:19:15.481Z,2.49
2022-12-25T19:21:44.336Z,2.50
2022-12-25T19:24:14.046Z,2.51
2022-12-25T19:26:43.837Z,2.50
2022-12-25T19:29:14.254Z,2.49
2022-12-25T19:31:43.622Z,2.47
2022-12-25T19:34:12.592Z,2.46
2022-12-25T19:36:41.168Z,2.45
2022-12-25T19:39:11.881Z,2.42
2022-12-25T19:41:40.279Z,2.38
2022-12-25T19:44:09.068Z,2.35
2022-12-25T19:46:40.890Z,2.32
2022-12-25T19:49:14.084Z,2.27
2022-12-25T19:51:45.286Z,2.21
2022-12-25T19:54:16.172Z,2.17
2022-12-25T19:56:44.788Z,2.12
2022-12-25T19:59:14.930Z,2.09
2022-12-25T20:01:43.886Z,2.07
2022-12-25T20:04:12.717Z,2.04
2022-12-25T20:06:42.824Z,1.94
2022-12-25T20:09:14.419Z,1.82
2022-12-25T20:11:43.873Z,1.70
2022-12-25T20:14:18.193Z,1.62
2022-12-25T20:16:47.171Z,1.57
2022-12-25T20:19:15.977Z,1.52
2022-12-25T20:21:44.558Z,1.49
2022-12-25T20:24:13.250Z,1.52
2022-12-25T20:26:44.347Z,1.49
2022-12-25T20:29:16.043Z,1.34
2022-12-25T20:31:44.776Z,1.24
2022-12-25T20:34:13.416Z,1.19
2022-12-25T20:36:45.688Z,1.18
2022-12-25T20:39:14.375Z,1.17
2022-12-25T20:41:44.307Z,1.19
2022-12-25T20:44:13.865Z,1.20
2022-12-25T20:46:43.505Z,1.22
2022-12-25T20:49:13.299Z,1.22
2022-12-25T20:51:42.126Z,1.20
2022-12-25T20:54:11.301Z,1.15
2022-12-25T20:56:40.524Z,1.11
2022-12-25T20:59:12.128Z,1.07
2022-12-25T21:01:43.199Z,1.06
2022-12-25T21:04:16.189Z,1.04
2022-12-25T21:06:46.305Z,1.01
2022-12-25T21:09:14.790Z,0.96
2022-12-25T21:11:43.257Z,0.86
2022-12-25T21:14:12.371Z,0.76
2022-12-25T21:16:40.928Z,0.69
2022-12-25T21:19:09.636Z,0.62
2022-12-25T21:21:43.547Z,0.58
2022-12-25T21:24:12.334Z,0.58
2022-12-25T21:26:47.586Z,0.57
2022-12-25T21:29:21.687Z,0.57
2022-12-25T21:32:09.227Z,0.59
2022-12-25T21:34:38.210Z,0.61
2022-12-25T21:37:06.893Z,0.63
2022-12-25T21:39:35.786Z,0.69
2022-12-25T21:42:04.841Z,0.77
2022-12-25T21:44:33.931Z,0.84
2022-12-25T21:47:02.460Z,0.90
2022-12-25T21:49:49.998Z,0.97
2022-12-25T21:52:18.970Z,1.05
2022-12-25T21:54:47.769Z,1.14
2022-12-25T21:57:16.364Z,1.20
2022-12-25T21:59:45.962Z,1.26
2022-12-25T22:02:14.902Z,1.32
2022-12-25T22:04:43.819Z,1.35
2022-12-25T22:07:19.408Z,1.38
2022-12-25T22:09:52.063Z,1.42
2022-12-25T22:12:40.531Z,1.44
2022-12-25T22:15:10.784Z,1.47
2022-12-25T22:17:59.828Z,1.53
2022-12-25T22:20:36.377Z,1.57
2022-12-25T22:23:05.384Z,1.57
2022-12-25T22:25:34.068Z,1.57
2022-12-25T22:28:02.720Z,1.61
2022-12-25T22:30:32.258Z,1.69
2022-12-25T22:33:02.285Z,1.75
2022-12-25T22:35:30.860Z,1.73
2022-12-25T22:37:59.644Z,1.71
2022-12-25T22:40:28.331Z,1.73
2022-12-25T22:42:57.697Z,1.80
2022-12-25T22:45:26.423Z,1.89
2022-12-25T22:47:54.910Z,1.91
2022-12-25T22:50:24.376Z,1.85
2022-12-25T22:52:53.817Z,1.76
2022-12-25T22:55:22.297Z,1.64
2022-12-25T22:57:52.605Z,1.54
2022-12-25T23:00:21.718Z,1.49
2022-12-25T23:02:50.298Z,1.43
2022-12-25T23:05:19.061Z,1.40
2022-12-25T23:07:48.293Z,1.36
2022-12-25T23:10:16.777Z,1.32
2022-12-25T23:13:04.603Z,1.27
2022-12-25T23:15:33.570Z,1.25
2022-12-25T23:18:21.536Z,1.26
2022-12-25T23:21:09.182Z,1.29
2022-12-25T23:23:56.486Z,1.30
2022-12-25T23:26:25.380Z,1.25
2022-12-25T23:29:12.769Z,1.18
2022-12-25T23:31:42.771Z,1.09
2022-12-25T23:34:11.407Z,1.06
2022-12-25T23:36:40.067Z,1.04
2022-12-25T23:39:10.389Z,1.02
2022-12-25T23:41:41.110Z,0.99
2022-12-25T23:44:11.589Z,0.96
2022-12-25T23:46:41.420Z,0.95
2022-12-25T23:49:23.413Z,0.95
2022-12-25T23:51:52.617Z,0.94
2022-12-25T23:54:25.355Z,0.93
2022-12-25T23:56:54.657Z,0.93
2022-12-25T23:59:24.734Z,0.92
